Time;durP1;ratioP1;P1;durP2;ratioP2;P2;SDS_P1;SDS_P2;PMS_P1;PMS_P2;Temp;Humidity;BMP_temperature;BMP_pressure;BME280_temperature;BME280_humidity;BME280_pressure;Samples;Min_cycle;Max_cycle;Signal;HPM_P1;HPM_P2
2024/02/01 00:01:53;;;;;;;3.90;3.10;;;10.20;99.90;;;;;;5095637;28;20188;-77
2024/02/01 00:04:19;;;;;;;3.67;2.57;;;10.30;99.90;;;;;;5063802;28;20191;-76
2024/02/01 00:06:50;;;;;;;5.07;2.20;;;10.30;99.90;;;;;;5046851;28;20259;-77
2024/02/01 00:09:16;;;;;;;5.63;2.60;;;10.40;99.90;;;;;;5100215;28;20187;-77
2024/02/01 00:11:42;;;;;;;4.20;2.40;;;10.50;99.90;;;;;;5094885;28;20199;-77
2024/02/01 00:14:08;;;;;;;3.25;2.10;;;10.60;99.90;;;;;;5098297;28;20180;-76
2024/02/01 00:16:34;;;;;;;6.23;3.10;;;10.70;99.90;;;;;;5113284;28;20155;-77
2024/02/01 00:18:59;;;;;;;3.77;2.50;;;10.70;99.90;;;;;;5103529;28;20178;-77
2024/02/01 00:21:25;;;;;;;6.73;2.50;;;10.80;99.90;;;;;;5085623;28;20164;-76
2024/02/01 00:23:51;;;;;;;3.00;2.03;;;10.90;99.90;;;;;;5105889;28;20207;-77
2024/02/01 00:26:16;;;;;;;5.67;2.73;;;11.00;99.90;;;;;;5081502;28;20562;-78
2024/02/01 00:28:42;;;;;;;5.80;3.13;;;11.00;99.90;;;;;;5077548;28;20177;-78
2024/02/01 00:31:08;;;;;;;5.50;2.80;;;11.10;99.90;;;;;;5101940;28;20215;-78
2024/02/01 00:33:34;;;;;;;4.53;2.50;;;11.20;99.90;;;;;;5071465;28;20251;-78
2024/02/01 00:35:59;;;;;;;5.23;2.90;;;11.20;99.90;;;;;;5067937;28;20195;-78
2024/02/01 00:38:25;;;;;;;9.10;3.67;;;11.30;99.90;;;;;;5099229;28;20184;-78
2024/02/01 00:40:51;;;;;;;4.50;2.80;;;11.30;99.90;;;;;;5104196;28;20231;-78
2024/02/01 00:43:16;;;;;;;6.23;2.87;;;11.40;99.90;;;;;;5073881;28;20199;-78
2024/02/01 00:45:42;;;;;;;5.33;3.00;;;11.40;99.90;;;;;;5091269;28;20179;-78
2024/02/01 00:48:08;;;;;;;5.50;3.20;;;11.40;99.90;;;;;;5100583;28;20175;-76
2024/02/01 00:50:33;;;;;;;2.90;2.43;;;11.40;99.90;;;;;;5065110;28;20697;-77
2024/02/01 00:52:59;;;;;;;6.43;2.80;;;11.50;99.90;;;;;;5081821;28;20164;-77
2024/02/01 00:55:25;;;;;;;4.33;2.80;;;11.50;99.90;;;;;;5063410;28;20203;-77
2024/02/01 00:57:50;;;;;;;4.73;2.90;;;11.50;99.90;;;;;;5095242;28;20161;-76
2024/02/01 01:00:16;;;;;;;4.23;2.77;;;11.50;99.90;;;;;;5061963;28;20230;-77
2024/02/01 01:02:42;;;;;;;5.57;2.78;;;11.60;99.90;;;;;;5088227;28;20172;-77
2024/02/01 01:05:08;;;;;;;4.73;2.77;;;11.60;99.90;;;;;;5068251;28;20248;-76
2024/02/01 01:07:37;;;;;;;4.60;2.92;;;11.60;99.90;;;;;;5098323;28;20283;-76
2024/02/01 01:10:02;;;;;;;8.65;4.93;;;11.60;99.90;;;;;;5085281;28;20195;-77
2024/02/01 01:12:30;;;;;;;7.40;4.30;;;11.60;99.90;;;;;;5058328;28;20179;-77
2024/02/01 01:14:56;;;;;;;4.38;3.65;;;11.60;99.90;;;;;;5074810;28;20215;-77
2024/02/01 01:17:21;;;;;;;4.80;3.20;;;11.60;99.90;;;;;;5082047;28;20199;-76
2024/02/01 01:19:48;;;;;;;5.43;3.27;;;11.60;99.90;;;;;;5086587;28;20792;-77
2024/02/01 01:22:14;;;;;;;5.60;3.33;;;11.70;99.90;;;;;;5082713;28;20168;-77
2024/02/01 01:24:40;;;;;;;4.37;2.80;;;11.70;99.90;;;;;;5079129;28;20211;-77
2024/02/01 01:27:06;;;;;;;3.43;3.03;;;11.70;99.90;;;;;;5072825;28;20176;-76
2024/02/01 01:29:32;;;;;;;5.93;3.88;;;11.70;99.90;;;;;;5086108;28;20282;-76
2024/02/01 01:31:57;;;;;;;4.13;3.20;;;11.70;99.90;;;;;;5076580;23;20275;-72
2024/02/01 01:34:23;;;;;;;5.37;3.43;;;11.70;99.90;;;;;;5069700;28;20210;-71
2024/02/01 01:36:49;;;;;;;4.10;3.33;;;11.60;99.90;;;;;;5069874;28;20233;-72
2024/02/01 01:39:15;;;;;;;5.20;2.80;;;11.60;99.90;;;;;;5069694;28;20172;-71
2024/02/01 01:41:45;;;;;;;5.53;3.07;;;11.60;99.90;;;;;;5021151;28;20618;-72
2024/02/01 01:44:10;;;;;;;5.00;3.55;;;11.60;99.90;;;;;;5072044;28;20640;-71
2024/02/01 01:46:37;;;;;;;5.60;3.45;;;11.50;99.90;;;;;;5090026;28;20174;-71
2024/02/01 01:49:04;;;;;;;5.47;3.13;;;11.50;99.90;;;;;;5090202;28;20159;-71
2024/02/01 01:51:31;;;;;;;4.15;3.25;;;11.40;99.90;;;;;;5054729;28;20178;-71
2024/02/01 01:53:58;;;;;;;6.63;2.85;;;11.30;99.90;;;;;;5090140;28;20572;-71
2024/02/01 01:56:24;;;;;;;3.70;2.83;;;11.30;99.90;;;;;;5090360;28;20200;-71
2024/02/01 01:58:51;;;;;;;4.95;3.17;;;11.20;99.90;;;;;;5072502;28;20183;-73
2024/02/01 02:01:17;;;;;;;5.88;2.75;;;11.20;99.90;;;;;;5072162;28;20194;-71
2024/02/01 02:03:46;;;;;;;5.68;3.10;;;11.10;99.90;;;;;;5071661;28;20221;-71
2024/02/01 02:06:12;;;;;;;6.65;3.05;;;11.10;99.90;;;;;;5090425;28;20175;-71
2024/02/01 02:08:38;;;;;;;5.80;3.43;;;11.00;99.90;;;;;;5090323;28;20699;-71
2024/02/01 02:11:04;;;;;;;3.57;2.70;;;10.90;99.90;;;;;;5072330;28;20214;-72
2024/02/01 02:13:30;;;;;;;3.95;2.70;;;10.90;99.90;;;;;;5089721;28;20928;-73
2024/02/01 02:15:56;;;;;;;4.37;2.90;;;10.90;99.90;;;;;;5071746;28;20286;-72
2024/02/01 02:18:21;;;;;;;4.85;2.95;;;10.90;99.90;;;;;;5071930;28;20581;-72
2024/02/01 02:20:50;;;;;;;3.50;2.73;;;10.80;99.90;;;;;;5071962;28;20231;-72
2024/02/01 02:23:17;;;;;;;5.72;3.55;;;10.80;99.90;;;;;;5089747;28;20196;-72
2024/02/01 02:25:42;;;;;;;4.85;3.67;;;10.80;99.90;;;;;;5071695;28;20180;-73
2024/02/01 02:28:08;;;;;;;5.43;3.40;;;10.70;99.90;;;;;;5090317;28;20258;-72
2024/02/01 02:30:36;;;;;;;5.87;3.80;;;10.70;99.90;;;;;;5076113;28;20590;-73
2024/02/01 02:33:01;;;;;;;4.30;3.05;;;10.70;99.90;;;;;;5068050;28;20238;-72
2024/02/01 02:35:27;;;;;;;4.83;3.87;;;10.70;99.90;;;;;;5094201;28;20272;-72
2024/02/01 02:37:53;;;;;;;3.93;3.00;;;10.60;99.90;;;;;;5093947;28;20763;-72
2024/02/01 02:40:20;;;;;;;5.07;3.07;;;10.60;99.90;;;;;;5093731;28;20638;-72
2024/02/01 02:42:46;;;;;;;4.95;3.30;;;10.60;99.90;;;;;;5074980;28;20199;-72
2024/02/01 02:45:13;;;;;;;4.30;3.30;;;10.60;99.90;;;;;;5093779;28;20172;-73
2024/02/01 02:47:38;;;;;;;6.00;3.15;;;10.50;99.90;;;;;;5093039;28;20175;-73
2024/02/01 02:50:08;;;;;;;6.77;3.87;;;10.50;99.90;;;;;;5075258;28;20186;-72
2024/02/01 02:52:41;;;;;;;3.90;3.15;;;10.50;99.90;;;;;;5074913;28;21404;-72
2024/02/01 02:55:07;;;;;;;5.15;3.15;;;10.50;99.90;;;;;;5067761;28;20212;-73
2024/02/01 02:57:34;;;;;;;3.85;3.30;;;10.50;99.90;;;;;;5075383;28;20171;-73
2024/02/01 03:00:05;;;;;;;4.15;3.63;;;10.50;99.90;;;;;;5093343;28;20694;-72
2024/02/01 03:02:31;;;;;;;3.72;2.88;;;10.50;99.90;;;;;;5093245;28;20196;-72
2024/02/01 03:04:58;;;;;;;4.75;3.75;;;10.50;99.90;;;;;;5092791;28;20199;-72
2024/02/01 03:07:23;;;;;;;3.92;3.20;;;10.50;99.90;;;;;;5093212;28;20183;-72
2024/02/01 03:09:49;;;;;;;4.50;3.30;;;10.50;99.90;;;;;;5057467;28;20175;-72
2024/02/01 03:12:15;;;;;;;5.70;3.63;;;10.50;99.90;;;;;;5093365;28;20680;-72
2024/02/01 03:14:41;;;;;;;7.13;4.17;;;10.50;99.90;;;;;;5092651;28;20283;-72
2024/02/01 03:17:10;;;;;;;3.40;3.00;;;10.50;99.90;;;;;;5093355;28;20254;-72
2024/02/01 03:19:40;;;;;;;4.18;3.55;;;10.50;99.90;;;;;;5075104;28;20581;-72
2024/02/01 03:22:06;;;;;;;5.35;3.60;;;10.50;99.90;;;;;;5093210;28;20225;-72
2024/02/01 03:24:32;;;;;;;3.92;2.75;;;10.50;99.90;;;;;;5092585;28;20241;-73
2024/02/01 03:26:58;;;;;;;3.33;3.03;;;10.50;99.90;;;;;;5074799;28;20744;-73
2024/02/01 03:29:24;;;;;;;4.45;3.20;;;10.50;99.90;;;;;;5074866;28;20589;-72
2024/02/01 03:31:51;;;;;;;4.22;3.35;;;10.50;99.90;;;;;;5074631;28;20235;-72
2024/02/01 03:34:20;;;;;;;3.17;2.60;;;10.50;99.90;;;;;;5092535;28;20184;-73
2024/02/01 03:36:50;;;;;;;3.30;2.10;;;10.50;99.90;;;;;;5074490;28;20172;-72
2024/02/01 03:39:22;;;;;;;4.68;2.30;;;10.50;99.90;;;;;;5058023;28;20186;-73
2024/02/01 03:41:53;;;;;;;4.53;3.28;;;10.50;99.90;;;;;;5057439;28;20199;-73
2024/02/01 03:44:19;;;;;;;3.28;2.97;;;10.50;99.90;;;;;;5057562;28;20184;-73
2024/02/01 03:46:44;;;;;;;4.43;3.10;;;10.50;99.90;;;;;;5092417;28;20255;-73
2024/02/01 03:49:10;;;;;;;3.00;2.43;;;10.50;99.90;;;;;;5092601;28;20594;-73
2024/02/01 03:51:37;;;;;;;3.10;2.43;;;10.50;99.90;;;;;;5074211;28;20722;-73
2024/02/01 03:54:06;;;;;;;3.80;3.15;;;10.60;99.90;;;;;;5049099;28;20582;-73
2024/02/01 03:56:32;;;;;;;3.67;2.75;;;10.60;99.90;;;;;;5074205;28;20864;-73
2024/02/01 03:59:01;;;;;;;3.85;2.70;;;10.60;99.90;;;;;;5074269;28;20253;-73
2024/02/01 04:01:30;;;;;;;4.07;3.50;;;10.60;99.90;;;;;;5092433;28;20202;-73
2024/02/01 04:03:56;;;;;;;3.88;3.25;;;10.60;99.90;;;;;;5056916;28;20182;-73
2024/02/01 04:06:23;;;;;;;5.00;3.10;;;10.60;99.90;;;;;;5073778;28;20171;-73
2024/02/01 04:08:49;;;;;;;3.17;2.33;;;10.60;99.90;;;;;;5074130;28;20179;-73
2024/02/01 04:11:15;;;;;;;3.58;2.67;;;10.60;99.90;;;;;;5092083;28;20218;-73
2024/02/01 04:13:41;;;;;;;4.47;2.93;;;10.60;99.90;;;;;;5073576;28;20213;-73
2024/02/01 04:16:07;;;;;;;3.00;2.60;;;10.70;99.90;;;;;;5048892;28;20755;-73
2024/02/01 04:18:33;;;;;;;5.47;3.63;;;10.60;99.90;;;;;;5091936;28;20179;-73
2024/02/01 04:21:00;;;;;;;3.15;2.28;;;10.70;99.90;;;;;;5073602;28;21166;-74
2024/02/01 04:23:26;;;;;;;3.10;2.80;;;10.70;99.90;;;;;;5091632;28;20184;-73
2024/02/01 04:25:52;;;;;;;3.88;3.03;;;10.70;99.90;;;;;;5057119;28;20176;-73
2024/02/01 04:28:18;;;;;;;4.13;3.83;;;10.70;99.90;;;;;;5091703;28;20664;-73
2024/02/01 04:30:50;;;;;;;3.70;2.72;;;10.70;99.90;;;;;;5091776;28;20168;-73
2024/02/01 04:33:18;;;;;;;3.92;2.97;;;10.70;99.90;;;;;;5056219;28;20272;-73
2024/02/01 04:35:44;;;;;;;6.10;3.65;;;10.70;99.90;;;;;;5091306;28;20561;-73
2024/02/01 04:38:10;;;;;;;3.95;3.58;;;10.70;99.90;;;;;;5073620;28;20622;-73
2024/02/01 04:40:36;;;;;;;4.27;2.50;;;10.70;99.90;;;;;;5073623;28;20178;-73
2024/02/01 04:43:02;;;;;;;3.00;2.77;;;10.70;99.90;;;;;;5090996;28;20648;-73
2024/02/01 04:45:29;;;;;;;5.03;3.20;;;10.80;99.90;;;;;;5091677;28;20244;-73
2024/02/01 04:47:55;;;;;;;3.38;2.40;;;10.80;99.90;;;;;;5056451;28;20641;-73
2024/02/01 04:50:20;;;;;;;4.07;3.60;;;10.80;99.90;;;;;;5064928;28;20236;-73
2024/02/01 04:52:46;;;;;;;4.60;3.77;;;10.80;99.90;;;;;;5072070;28;21261;-72
2024/02/01 04:55:12;;;;;;;4.63;2.90;;;10.80;99.90;;;;;;5056514;28;20206;-73
2024/02/01 04:57:38;;;;;;;4.90;3.20;;;10.80;99.90;;;;;;5072916;28;20194;-73
2024/02/01 05:00:16;;;;;;;3.78;2.45;;;10.80;99.90;;;;;;5072986;28;20614;-73
2024/02/01 05:02:42;;;;;;;4.03;3.03;;;10.80;99.90;;;;;;5072565;28;20244;-73
2024/02/01 05:05:10;;;;;;;3.20;2.50;;;10.90;99.90;;;;;;5055946;28;20171;-73
2024/02/01 05:07:36;;;;;;;2.83;2.33;;;10.80;99.90;;;;;;5072839;28;20175;-73
2024/02/01 05:10:03;;;;;;;4.43;3.42;;;10.90;99.90;;;;;;5056212;28;20585;-73
2024/02/01 05:12:29;;;;;;;3.85;3.05;;;10.90;99.90;;;;;;5091069;28;20624;-73
2024/02/01 05:14:55;;;;;;;3.73;2.80;;;10.90;99.90;;;;;;5091378;28;20235;-72
2024/02/01 05:17:20;;;;;;;3.27;2.40;;;10.90;99.90;;;;;;5073219;28;20592;-72
2024/02/01 05:19:46;;;;;;;3.87;3.13;;;10.90;99.90;;;;;;5090427;28;20176;-72
2024/02/01 05:22:12;;;;;;;2.90;2.60;;;10.90;99.90;;;;;;5072694;28;20199;-72
2024/02/01 05:24:37;;;;;;;3.77;2.87;;;11.00;99.90;;;;;;5072398;28;20183;-73
2024/02/01 05:27:08;;;;;;;7.07;3.77;;;11.00;99.90;;;;;;5072870;28;20191;-72
2024/02/01 05:29:35;;;;;;;3.85;3.30;;;11.00;99.90;;;;;;5090836;28;20179;-72
2024/02/01 05:32:06;;;;;;;3.53;3.22;;;11.00;99.90;;;;;;5072673;28;20208;-72
2024/02/01 05:34:33;;;;;;;3.97;3.50;;;11.00;99.90;;;;;;5072010;28;20202;-72
2024/02/01 05:36:59;;;;;;;4.47;3.92;;;11.00;99.90;;;;;;5087035;28;20608;-72
2024/02/01 05:39:25;;;;;;;4.43;4.03;;;11.00;99.90;;;;;;5072638;28;20263;-70
2024/02/01 05:41:58;;;;;;;5.77;4.40;;;11.10;99.90;;;;;;5090245;28;20223;-73
2024/02/01 05:44:26;;;;;;;4.18;3.78;;;11.10;99.90;;;;;;5090219;28;20218;-72
2024/02/01 05:46:53;;;;;;;5.25;4.10;;;11.10;99.90;;;;;;5072443;28;20179;-72
2024/02/01 05:49:28;;;;;;;5.43;4.45;;;11.10;99.90;;;;;;5090499;28;20180;-73
2024/02/01 05:51:59;;;;;;;5.28;4.32;;;11.10;99.90;;;;;;5072424;28;20226;-73
2024/02/01 05:54:24;;;;;;;6.45;4.85;;;11.10;99.90;;;;;;5089934;28;20199;-74
2024/02/01 05:56:50;;;;;;;6.53;5.10;;;11.10;99.90;;;;;;5072226;28;20249;-73
2024/02/01 05:59:17;;;;;;;6.07;5.20;;;11.10;99.90;;;;;;5052259;28;20862;-73
2024/02/01 06:01:44;;;;;;;6.35;5.75;;;11.20;99.90;;;;;;5086467;28;20688;-73
2024/02/01 06:04:11;;;;;;;8.48;6.93;;;11.20;99.90;;;;;;5073943;28;20262;-72
2024/02/01 06:06:39;;;;;;;6.40;5.90;;;11.20;99.90;;;;;;5094411;28;20652;-72
2024/02/01 06:09:14;;;;;;;8.43;6.20;;;11.20;99.90;;;;;;5094441;28;20186;-71
2024/02/01 06:11:45;;;;;;;7.28;6.57;;;11.20;99.90;;;;;;5076394;28;20203;-73
2024/02/01 06:14:14;;;;;;;9.00;8.13;;;11.20;99.90;;;;;;5093780;28;20648;-73
2024/02/01 06:16:40;;;;;;;8.02;7.22;;;11.20;99.90;;;;;;5076068;28;20183;-73
2024/02/01 06:19:07;;;;;;;9.48;8.25;;;11.20;99.90;;;;;;5076168;28;20218;-73
2024/02/01 06:21:33;;;;;;;8.00;7.03;;;11.20;99.90;;;;;;5059266;28;20266;-72
2024/02/01 06:23:59;;;;;;;7.30;6.53;;;11.20;99.90;;;;;;5093520;28;20254;-73
2024/02/01 06:26:27;;;;;;;9.80;7.70;;;11.20;99.90;;;;;;5076326;28;20634;-75
2024/02/01 06:29:00;;;;;;;8.05;7.25;;;11.30;99.90;;;;;;5094056;28;20184;-76
2024/02/01 06:31:26;;;;;;;7.38;6.68;;;11.30;99.90;;;;;;5075404;28;20179;-75
2024/02/01 06:33:53;;;;;;;11.18;7.45;;;11.30;99.90;;;;;;5055801;28;20184;-75
2024/02/01 06:36:20;;;;;;;7.78;6.70;;;11.30;99.90;;;;;;5093717;28;20199;-75
2024/02/01 06:41:29;;;;;;;7.57;6.70;;;11.30;99.90;;;;;;5093957;28;20180;-75
2024/02/01 06:44:20;;;;;;;7.53;6.65;;;11.30;99.90;;;;;;5058416;28;20217;-75
2024/02/01 06:47:05;;;;;;;7.93;7.05;;;11.30;99.90;;;;;;5093363;28;20191;-76
2024/02/01 06:52:02;;;;;;;7.95;6.65;;;11.20;99.90;;;;;;5093461;28;20196;-76
2024/02/01 06:54:50;;;;;;;8.30;7.32;;;11.20;99.90;;;;;;5068306;28;20193;-75
2024/02/01 06:57:45;;;;;;;9.60;8.20;;;11.30;99.90;;;;;;5093577;28;20612;-76
2024/02/01 07:08:34;;;;;;;12.70;9.00;;;11.20;99.90;;;;;;5092623;28;20637;-75
2024/02/01 07:16:38;;;;;;;9.90;7.93;;;11.10;99.90;;;;;;5073783;28;20206;-75
2024/02/01 07:22:06;;;;;;;8.30;6.75;;;11.00;99.90;;;;;;5093269;28;20219;-76
2024/02/01 07:24:59;;;;;;;9.40;6.85;;;10.90;99.90;;;;;;5086124;28;20187;-76
2024/02/01 07:57:55;;;;;;;10.60;6.00;;;10.30;99.90;;;;;;5076207;28;20171;-73
2024/02/01 08:00:33;;;;;;;8.25;4.75;;;10.30;99.90;;;;;;5091222;28;20182;-73
2024/02/01 08:08:24;;;;;;;7.85;3.65;;;10.30;99.90;;;;;;5090224;28;20187;-74
2024/02/01 08:10:56;;;;;;;9.53;4.03;;;10.30;99.90;;;;;;5074330;28;20175;-73
2024/02/01 08:13:26;;;;;;;10.82;4.25;;;10.30;99.90;;;;;;5091202;28;20191;-73
2024/02/01 08:15:52;;;;;;;7.53;3.35;;;10.30;99.90;;;;;;5090658;28;20235;-73
2024/02/01 08:18:26;;;;;;;9.63;3.40;;;10.30;99.90;;;;;;5073463;28;20185;-74
2024/02/01 08:20:53;;;;;;;7.82;2.80;;;10.20;99.90;;;;;;5073275;28;20176;-73
2024/02/01 08:23:19;;;;;;;7.47;2.15;;;10.20;99.90;;;;;;5091191;28;20234;-74
2024/02/01 08:25:46;;;;;;;8.93;2.17;;;10.10;99.90;;;;;;5073549;28;20179;-73
2024/02/01 08:28:12;;;;;;;5.45;1.63;;;10.00;99.90;;;;;;5072101;28;20282;-73
2024/02/01 08:30:38;;;;;;;9.73;2.60;;;9.90;99.90;;;;;;5070955;28;20278;-73
2024/02/01 08:33:04;;;;;;;8.53;2.17;;;9.80;99.90;;;;;;5090792;28;20625;-73
2024/02/01 08:35:33;;;;;;;6.57;1.90;;;9.80;99.90;;;;;;5056722;28;21260;-73
2024/02/01 08:38:05;;;;;;;9.45;2.10;;;9.70;99.90;;;;;;5091336;28;20580;-73
2024/02/01 08:40:31;;;;;;;10.35;2.25;;;9.60;99.90;;;;;;5072888;28;20164;-73
2024/02/01 08:43:00;;;;;;;8.60;1.60;;;9.50;99.90;;;;;;5090745;28;20206;-73
2024/02/01 08:45:29;;;;;;;9.73;1.60;;;9.50;99.90;;;;;;5083461;28;20164;-72
2024/02/01 08:48:02;;;;;;;6.70;2.05;;;9.40;99.90;;;;;;5072984;28;20179;-73
2024/02/01 08:50:32;;;;;;;7.13;1.60;;;9.30;99.90;;;;;;5056233;28;20190;-73
2024/02/01 08:52:59;;;;;;;8.85;2.60;;;9.30;99.90;;;;;;5069092;28;20323;-74
2024/02/01 08:55:25;;;;;;;7.07;1.60;;;9.30;99.90;;;;;;5064745;28;20218;-74
2024/02/01 08:57:52;;;;;;;11.60;1.92;;;9.30;99.90;;;;;;5072343;28;20267;-72
2024/02/01 09:00:21;;;;;;;8.98;2.17;;;9.20;99.90;;;;;;5090595;28;20574;-73
2024/02/01 09:03:05;;;;;;;7.07;3.38;;;9.20;99.90;;;;;;5072106;28;20183;-74
2024/02/01 09:05:53;;;;;;;9.50;2.60;;;9.20;99.90;;;;;;5090854;28;20198;-72
2024/02/01 09:08:35;;;;;;;9.13;2.35;;;9.20;99.90;;;;;;5072748;28;20175;-73
2024/02/01 09:11:11;;;;;;;5.82;1.77;;;9.20;99.90;;;;;;5072245;28;20580;-74
2024/02/01 09:13:45;;;;;;;10.05;2.60;;;9.20;99.90;;;;;;5072298;28;20259;-73
2024/02/01 09:16:22;;;;;;;9.13;3.38;;;9.30;99.90;;;;;;5090567;28;20248;-73
2024/02/01 09:18:48;;;;;;;9.77;2.58;;;9.30;99.90;;;;;;5089617;28;20537;-73
2024/02/01 09:21:14;;;;;;;6.38;1.95;;;9.30;99.90;;;;;;5072198;28;20599;-73
2024/02/01 09:23:40;;;;;;;7.90;2.07;;;9.40;99.90;;;;;;5072334;28;20203;-73
2024/02/01 09:26:09;;;;;;;11.23;2.67;;;9.40;99.90;;;;;;5072174;28;20543;-73
2024/02/01 09:28:35;;;;;;;11.27;3.10;;;9.40;99.90;;;;;;5089357;28;21188;-73
2024/02/01 09:31:18;;;;;;;11.23;2.13;;;9.50;99.90;;;;;;5071836;28;20187;-73
2024/02/01 09:33:45;;;;;;;7.53;1.52;;;9.60;99.90;;;;;;5071838;28;20191;-73
2024/02/01 09:36:11;;;;;;;13.35;2.60;;;9.70;99.90;;;;;;5055357;28;20256;-74
2024/02/01 09:38:37;;;;;;;10.27;1.98;;;9.70;99.90;;;;;;5072162;28;20176;-74
2024/02/01 09:41:15;;;;;;;7.10;1.73;;;9.80;99.90;;;;;;5090313;28;20563;-73
2024/02/01 09:43:47;;;;;;;7.88;2.42;;;9.90;99.90;;;;;;5071544;28;20194;-72
2024/02/01 09:46:13;;;;;;;15.73;2.03;;;10.00;99.90;;;;;;5069605;28;20269;-72
2024/02/01 09:48:40;;;;;;;10.15;2.58;;;10.20;99.90;;;;;;5090248;28;20172;-73
2024/02/01 09:51:06;;;;;;;8.38;1.98;;;10.30;99.90;;;;;;5071677;28;20180;-73
2024/02/01 09:53:32;;;;;;;12.68;2.50;;;10.30;99.90;;;;;;5090011;28;20194;-73
2024/02/01 09:55:58;;;;;;;9.20;2.63;;;10.40;99.90;;;;;;5071876;28;20199;-73
2024/02/01 09:58:26;;;;;;;9.60;1.77;;;10.40;99.90;;;;;;5072170;28;20221;-74
2024/02/01 10:00:56;;;;;;;10.38;1.98;;;10.40;99.90;;;;;;5072022;28;20183;-73
2024/02/01 10:03:27;;;;;;;10.00;2.03;;;10.50;99.90;;;;;;5071303;28;20199;-75
2024/02/01 10:06:04;;;;;;;11.02;1.88;;;10.60;99.90;;;;;;5072144;28;20176;-74
2024/02/01 10:08:33;;;;;;;12.15;2.67;;;10.70;99.90;;;;;;5072052;28;20175;-74
2024/02/01 10:11:01;;;;;;;8.32;1.90;;;10.70;99.90;;;;;;5071599;28;20180;-74
2024/02/01 10:13:33;;;;;;;8.93;2.20;;;10.80;99.90;;;;;;5064856;23;20215;-77
2024/02/01 10:16:00;;;;;;;9.57;2.05;;;10.90;99.90;;;;;;5071075;28;20204;-76
2024/02/01 10:18:26;;;;;;;10.68;3.05;;;11.00;99.90;;;;;;5078382;28;20218;-76
2024/02/01 10:20:55;;;;;;;9.30;2.33;;;11.10;99.90;;;;;;5069057;28;20161;-76
2024/02/01 10:23:21;;;;;;;10.73;2.83;;;11.10;99.90;;;;;;5069433;28;20250;-77
2024/02/01 10:25:53;;;;;;;15.67;2.87;;;11.20;99.90;;;;;;5052159;28;20834;-78
2024/02/01 10:28:25;;;;;;;9.05;2.13;;;11.30;99.90;;;;;;5052404;28;20188;-77
2024/02/01 10:30:52;;;;;;;12.00;3.28;;;11.30;99.90;;;;;;5051842;28;20187;-78
2024/02/01 10:33:25;;;;;;;9.52;2.70;;;11.40;99.90;;;;;;5035003;28;20200;-77
2024/02/01 10:35:52;;;;;;;9.43;2.80;;;11.40;99.90;;;;;;5052036;28;20196;-77
2024/02/01 10:38:26;;;;;;;16.38;2.53;;;11.50;99.90;;;;;;5027352;28;20206;-76
2024/02/01 10:40:58;;;;;;;15.23;3.10;;;11.50;99.90;;;;;;5069722;28;20181;-77
2024/02/01 10:43:30;;;;;;;12.48;2.75;;;11.60;99.90;;;;;;5080747;28;20241;-76
2024/02/01 10:46:28;;;;;;;14.65;3.50;;;11.60;99.90;;;;;;5053327;28;20246;-76
2024/02/01 10:49:17;;;;;;;11.52;2.30;;;11.60;99.90;;;;;;5041840;28;20181;-77
2024/02/01 10:51:48;;;;;;;7.53;2.22;;;11.70;99.90;;;;;;5045101;28;20173;-77
2024/02/01 10:54:15;;;;;;;15.65;3.90;;;11.70;99.90;;;;;;5055068;28;20669;-78
2024/02/01 10:56:42;;;;;;;14.70;3.28;;;11.80;99.90;;;;;;5081967;28;20613;-78
2024/02/01 10:59:09;;;;;;;10.15;1.85;;;11.80;99.90;;;;;;5055912;28;20180;-78
2024/02/01 11:01:40;;;;;;;7.78;2.22;;;11.80;99.90;;;;;;5089369;28;20580;-78
2024/02/01 11:04:08;;;;;;;7.72;1.75;;;11.90;99.90;;;;;;5073144;28;20204;-78
2024/02/01 11:06:36;;;;;;;10.90;2.25;;;11.90;99.90;;;;;;5040213;28;20168;-77
2024/02/01 11:09:18;;;;;;;13.02;3.40;;;12.00;99.90;;;;;;5038774;28;20176;-77
2024/02/01 11:11:50;;;;;;;15.10;2.78;;;12.00;99.90;;;;;;5078169;28;20232;-77
2024/02/01 11:14:28;;;;;;;8.18;2.08;;;11.90;99.90;;;;;;5056190;28;20192;-77
2024/02/01 11:16:58;;;;;;;7.68;1.85;;;11.90;99.90;;;;;;5073283;28;20184;-76
2024/02/01 11:19:31;;;;;;;14.40;2.63;;;11.90;99.90;;;;;;5073290;28;20176;-76
2024/02/01 11:21:59;;;;;;;11.10;2.63;;;11.90;99.90;;;;;;5033946;28;20587;-77
2024/02/01 11:24:28;;;;;;;11.25;2.30;;;11.90;99.90;;;;;;5053847;28;20176;-77
2024/02/01 11:26:58;;;;;;;14.05;2.85;;;11.90;99.90;;;;;;5076736;28;20259;-77
2024/02/01 11:29:45;;;;;;;8.52;1.90;;;11.90;99.90;;;;;;5047160;28;20180;-77
2024/02/01 11:32:17;;;;;;;10.43;2.28;;;11.90;99.90;;;;;;5057186;28;20204;-76
2024/02/01 11:34:49;;;;;;;12.68;2.05;;;11.90;99.90;;;;;;5073449;28;20531;-77
2024/02/01 11:37:19;;;;;;;12.90;2.60;;;11.90;99.90;;;;;;5065254;28;20662;-77
2024/02/01 11:39:49;;;;;;;11.52;3.00;;;11.80;99.90;;;;;;5077028;28;20176;-75
2024/02/01 11:42:22;;;;;;;7.63;2.22;;;11.80;99.90;;;;;;5050621;28;20286;-74
2024/02/01 11:44:48;;;;;;;13.55;2.00;;;11.80;99.90;;;;;;5054296;28;20235;-75
2024/02/01 11:47:14;;;;;;;13.27;2.80;;;11.90;99.90;;;;;;5054137;28;20267;-75
2024/02/01 11:49:41;;;;;;;13.73;2.30;;;11.90;99.90;;;;;;5038207;28;20255;-76
2024/02/01 11:52:43;;;;;;;10.63;3.00;;;11.90;99.90;;;;;;5054437;28;20618;-75
2024/02/01 11:55:10;;;;;;;8.70;2.63;;;11.90;99.90;;;;;;5031653;28;20203;-76
2024/02/01 11:57:47;;;;;;;15.85;2.75;;;12.00;99.90;;;;;;5054301;28;20255;-75
2024/02/01 12:00:20;;;;;;;11.60;2.35;;;11.90;99.90;;;;;;5072084;28;20713;-76
2024/02/01 12:02:47;;;;;;;13.90;2.85;;;11.90;99.90;;;;;;5053763;28;20616;-75
2024/02/01 12:05:17;;;;;;;11.88;2.75;;;11.90;99.90;;;;;;5039476;28;20190;-75
2024/02/01 12:07:44;;;;;;;12.33;2.47;;;11.90;99.90;;;;;;5054113;28;20178;-75
2024/02/01 12:10:11;;;;;;;11.13;2.57;;;11.90;99.90;;;;;;5072129;28;21008;-75
2024/02/01 12:12:39;;;;;;;8.00;1.60;;;12.00;99.90;;;;;;5067941;28;21051;-75
2024/02/01 12:15:07;;;;;;;12.80;3.38;;;12.10;99.90;;;;;;5042217;28;20685;-74
2024/02/01 12:17:45;;;;;;;7.82;2.25;;;12.10;99.90;;;;;;5063263;28;20669;-75
2024/02/01 12:20:18;;;;;;;9.32;1.88;;;12.10;99.90;;;;;;5063930;28;20176;-75
2024/02/01 12:22:48;;;;;;;8.52;2.10;;;12.10;99.90;;;;;;5062670;28;20196;-75
2024/02/01 12:25:20;;;;;;;5.10;1.30;;;12.10;99.90;;;;;;5029040;28;20239;-75
2024/02/01 12:27:45;;;;;;;7.32;1.92;;;12.10;99.90;;;;;;5054084;28;20250;-74
2024/02/01 12:30:14;;;;;;;10.13;1.43;;;12.10;99.90;;;;;;5045243;28;20180;-75
2024/02/01 12:32:46;;;;;;;21.92;8.57;;;12.10;99.90;;;;;;5016957;28;20615;-75
2024/02/01 12:35:17;;;;;;;12.35;6.72;;;12.10;99.90;;;;;;5068405;28;20200;-75
2024/02/01 12:37:44;;;;;;;12.48;5.75;;;12.00;99.90;;;;;;5064497;28;20183;-76
2024/02/01 12:40:11;;;;;;;15.32;4.07;;;12.00;99.90;;;;;;5064885;28;20232;-75
2024/02/01 12:42:41;;;;;;;10.70;3.05;;;11.90;99.90;;;;;;5045641;28;20706;-75
2024/02/01 12:45:17;;;;;;;8.77;2.67;;;11.90;99.90;;;;;;5071619;28;20176;-75
2024/02/01 12:47:52;;;;;;;8.95;1.92;;;11.90;99.90;;;;;;5025044;28;20180;-76
2024/02/01 12:50:18;;;;;;;8.88;2.00;;;11.80;99.90;;;;;;5064649;28;20172;-75
2024/02/01 12:52:45;;;;;;;9.98;2.47;;;11.70;99.90;;;;;;5024539;28;20223;-76
2024/02/01 12:55:11;;;;;;;5.97;1.40;;;11.70;99.90;;;;;;5041870;28;20593;-76
2024/02/01 12:57:39;;;;;;;9.07;2.10;;;11.70;99.90;;;;;;5052909;28;20180;-76
2024/02/01 13:00:06;;;;;;;8.65;1.48;;;11.60;99.90;;;;;;5050622;28;20195;-76
2024/02/01 13:02:33;;;;;;;5.72;1.70;;;11.60;99.90;;;;;;5047784;28;20238;-76
2024/02/01 13:04:59;;;;;;;7.65;1.85;;;11.60;99.90;;;;;;5043555;28;20176;-76
2024/02/01 13:07:24;;;;;;;6.07;1.73;;;11.50;99.90;;;;;;5051141;28;20180;-77
2024/02/01 13:09:50;;;;;;;11.13;2.60;;;11.50;99.90;;;;;;5064285;28;20207;-76
2024/02/01 13:12:18;;;;;;;12.87;3.07;;;11.40;99.90;;;;;;5063886;28;20660;-76
2024/02/01 13:14:59;;;;;;;13.07;3.45;;;11.40;99.90;;;;;;5043406;28;20188;-76
2024/02/01 13:17:30;;;;;;;9.85;3.72;;;11.30;99.90;;;;;;5083613;28;20175;-76
2024/02/01 13:19:56;;;;;;;4.93;1.92;;;11.30;99.90;;;;;;5051572;28;20199;-76
2024/02/01 13:22:25;;;;;;;15.98;2.75;;;11.30;99.90;;;;;;5074470;28;20188;-76
2024/02/01 13:24:52;;;;;;;11.38;2.72;;;11.30;99.90;;;;;;5064051;28;20182;-76
2024/02/01 13:27:18;;;;;;;5.85;2.85;;;11.30;99.90;;;;;;5072689;28;20562;-77
2024/02/01 13:29:44;;;;;;;12.20;2.85;;;11.30;99.90;;;;;;5086068;28;20283;-76
2024/02/01 13:32:12;;;;;;;9.40;2.17;;;11.30;99.90;;;;;;5082688;28;20619;-76
2024/02/01 13:34:39;;;;;;;14.35;2.95;;;11.30;99.90;;;;;;5071598;28;20229;-76
2024/02/01 13:37:06;;;;;;;12.95;2.50;;;11.30;99.90;;;;;;5064483;28;20199;-76
2024/02/01 13:39:36;;;;;;;8.48;1.40;;;11.30;99.90;;;;;;5063930;28;20262;-76
2024/02/01 13:42:03;;;;;;;7.05;1.90;;;11.30;99.90;;;;;;5082371;28;20196;-76
2024/02/01 13:44:30;;;;;;;8.77;1.88;;;11.20;99.90;;;;;;5077472;28;20258;-77
2024/02/01 13:46:56;;;;;;;9.00;1.77;;;11.30;99.90;;;;;;5060648;28;20168;-77
2024/02/01 13:49:23;;;;;;;6.68;1.30;;;11.30;99.90;;;;;;5035247;28;20172;-76
2024/02/01 13:51:49;;;;;;;17.73;3.08;;;11.30;99.90;;;;;;5052497;28;20175;-76